Time;durP1;ratioP1;P1;durP2;ratioP2;P2;SDS_P1;SDS_P2;PMS_P1;PMS_P2;Temp;Humidity;BMP_temperature;BMP_pressure;BME280_temperature;BME280_humidity;BME280_pressure;Samples;Min_cycle;Max_cycle;Signal;HPM_P1;HPM_P2
2022/11/04 01:33:23;;;;;;;0.80;0.10;;;11.40;99.90;;;;;;6192552;22;20053;-95
2022/11/04 13:17:38;;;;;;;2.53;0.50;;;11.90;99.90;;;;;;6234892;22;20026;-92
2022/11/04 13:20:12;;;;;;;1.80;0.30;;;11.90;99.90;;;;;;6318722;22;20104;-90
2022/11/04 13:22:41;;;;;;;1.15;0.20;;;11.90;99.90;;;;;;6291998;22;20456;-94
2022/11/04 13:25:27;;;;;;;0.93;0.38;;;11.90;99.90;;;;;;6291225;22;20018;-91
2022/11/04 13:27:54;;;;;;;3.17;0.43;;;11.90;99.90;;;;;;6289186;22;20045;-90
2022/11/04 13:30:38;;;;;;;2.60;0.30;;;12.00;99.90;;;;;;6290574;22;20046;-96
2022/11/04 13:33:18;;;;;;;11.50;1.95;;;12.10;99.90;;;;;;6286606;22;20021;-96
2022/11/04 13:35:50;;;;;;;2.92;0.45;;;12.20;99.90;;;;;;6287801;22;20022;-92
2022/11/04 13:38:23;;;;;;;4.47;0.70;;;12.20;99.90;;;;;;6292876;22;20025;-94
2022/11/04 13:40:57;;;;;;;2.38;0.60;;;12.30;99.90;;;;;;6289962;22;20011;-94
2022/11/04 13:43:37;;;;;;;6.18;0.70;;;12.30;99.90;;;;;;6291120;22;20018;-91
2022/11/04 13:46:07;;;;;;;45.95;7.65;;;12.40;99.90;;;;;;6288354;22;20018;-94
2022/11/04 13:48:48;;;;;;;2.08;0.55;;;12.50;99.90;;;;;;6314801;22;20015;-96
2022/11/04 13:51:25;;;;;;;16.73;2.50;;;12.50;99.90;;;;;;6317795;22;20067;-94
2022/11/04 13:54:05;;;;;;;2.80;1.73;;;12.50;99.90;;;;;;6321043;22;20042;-95
2022/11/04 13:56:40;;;;;;;1.70;0.45;;;12.50;99.90;;;;;;6325525;22;20002;-94
2022/11/04 13:59:27;;;;;;;2.97;0.65;;;12.60;99.90;;;;;;6324696;22;20026;-94
2022/11/04 14:02:28;;;;;;;;;;;12.60;99.90;;;;;;6238412;22;20020;-95
2022/11/04 14:05:31;;;;;;;2.63;0.65;;;12.60;99.90;;;;;;6265066;22;19911;-94
2022/11/04 14:08:07;;;;;;;4.30;0.57;;;12.60;99.90;;;;;;6284688;22;20468;-95
2022/11/04 14:11:09;;;;;;;3.35;0.30;;;12.60;99.90;;;;;;6263338;22;20019;-96
2022/11/04 14:13:43;;;;;;;3.80;0.50;;;12.50;99.90;;;;;;6260060;22;20063;-95
2022/11/04 14:16:41;;;;;;;2.47;0.40;;;12.50;99.90;;;;;;6236399;22;20026;-93
2022/11/04 14:19:54;;;;;;;3.35;0.60;;;12.40;99.90;;;;;;6272661;22;20015;-95
2022/11/04 14:22:26;;;;;;;0.90;0.20;;;12.30;99.90;;;;;;6287585;22;20020;-95
2022/11/04 14:25:36;;;;;;;1.80;0.30;;;12.20;99.90;;;;;;6260782;22;20011;-95
2022/11/04 14:28:25;;;;;;;1.25;0.20;;;12.20;99.90;;;;;;6311653;22;20391;-96
2022/11/04 14:30:52;;;;;;;1.20;0.20;;;12.10;99.90;;;;;;6285889;22;20039;-96
2022/11/04 14:33:39;;;;;;;2.20;0.43;;;12.10;99.90;;;;;;6306453;22;20023;-96
2022/11/04 14:36:23;;;;;;;2.35;0.55;;;12.10;99.90;;;;;;6291738;22;20015;-96
2022/11/04 14:39:26;;;;;;;2.25;0.30;;;12.10;99.90;;;;;;6295678;22;20019;-96
2022/11/04 14:41:59;;;;;;;4.15;0.40;;;12.10;99.90;;;;;;6304398;22;20041;-94
2022/11/04 14:44:50;;;;;;;1.20;0.20;;;12.10;99.90;;;;;;6302402;22;20019;-94
2022/11/04 14:47:28;;;;;;;0.93;0.20;;;12.00;99.90;;;;;;6295760;22;20061;-96
2022/11/04 14:50:06;;;;;;;1.10;0.20;;;12.00;99.90;;;;;;6332107;22;20045;-95
2022/11/04 14:52:41;;;;;;;1.25;0.13;;;12.00;99.90;;;;;;6292171;22;20321;-96
2022/11/04 14:55:12;;;;;;;4.07;0.30;;;12.00;99.90;;;;;;6291025;22;20014;-94
2022/11/04 14:57:54;;;;;;;3.92;0.50;;;11.90;99.90;;;;;;6291425;22;20042;-94
2022/11/04 15:00:56;;;;;;;4.82;0.20;;;12.00;99.90;;;;;;6288673;22;20015;-95
2022/11/04 15:03:25;;;;;;;0.93;0.32;;;11.90;99.90;;;;;;6318765;22;20019;-95
2022/11/04 15:06:01;;;;;;;2.40;0.50;;;11.90;99.90;;;;;;6318288;22;20041;-92
2022/11/04 15:08:32;;;;;;;2.67;0.22;;;11.90;99.90;;;;;;6289235;22;20065;-94
2022/11/04 15:11:14;;;;;;;3.67;0.85;;;11.80;99.90;;;;;;6316271;22;20064;-95
2022/11/04 15:13:50;;;;;;;1.40;0.28;;;11.80;99.90;;;;;;6296704;22;20029;-93
2022/11/04 15:16:25;;;;;;;3.50;0.25;;;11.70;99.90;;;;;;6367049;22;20027;-94
2022/11/04 15:18:58;;;;;;;2.60;0.43;;;11.70;99.90;;;;;;6307924;22;20022;-95
2022/11/04 15:21:32;;;;;;;1.08;0.30;;;11.70;99.90;;;;;;6305053;22;20019;-95
2022/11/04 15:24:04;;;;;;;2.17;0.20;;;11.60;99.90;;;;;;6272153;22;20022;-94
2022/11/04 22:19:09;;;;;;;5.93;1.10;;;8.70;99.90;;;;;;6283698;22;20049;-94
2022/11/04 22:21:38;;;;;;;3.22;1.10;;;8.70;99.90;;;;;;6256406;22;20023;-92
2022/11/04 22:24:04;;;;;;;7.10;1.40;;;8.70;99.90;;;;;;6257147;22;20015;-93
2022/11/04 23:37:13;;;;;;;5.57;1.25;;;9.10;99.90;;;;;;6231563;22;20023;-93
2022/11/04 23:39:44;;;;;;;5.20;1.63;;;9.10;99.90;;;;;;6288418;22;20071;-92
2022/11/04 23:42:15;;;;;;;3.55;1.00;;;9.00;99.90;;;;;;6288092;22;20011;-93
